Terminal Aerodrome Forecast
Issued by NWS

Home | Current Version | Previous Version | Graphics & Text | Print | Product List | Glossary On
Versions: 1 2 3 4 5 6 7 8 9 10 11 12 13 14
358
FTUS41 KCLE 272320
TAFFDY
TAF
KFDY 272320Z 2800/2824 20003KT P6SM SCT050 BKN250
     FM281500 24005KT P6SM SCT050 BKN200=

USA.gov is the U.S. government's official web portal to all federal, state and local government web resources and services.